sensor_id;sensor_type;location;lat;lon;timestamp;P1;durP1;ratioP1;P2;durP2;ratioP2
56736;SDS011;42618;51.226;4.910;2024-02-26T00:01:04;3.88;;;1.38;;
56736;SDS011;42618;51.226;4.910;2024-02-26T00:04:29;3.30;;;1.40;;
56736;SDS011;42618;51.226;4.910;2024-02-26T00:07:55;4.38;;;1.30;;
56736;SDS011;42618;51.226;4.910;2024-02-26T00:11:20;1.42;;;1.10;;
56736;SDS011;42618;51.226;4.910;2024-02-26T00:14:46;2.38;;;1.20;;
56736;SDS011;42618;51.226;4.910;2024-02-26T00:18:11;1.88;;;1.42;;
56736;SDS011;42618;51.226;4.910;2024-02-26T00:21:39;5.38;;;1.40;;
56736;SDS011;42618;51.226;4.910;2024-02-26T00:25:05;3.33;;;1.40;;
56736;SDS011;42618;51.226;4.910;2024-02-26T00:28:30;2.20;;;1.67;;
56736;SDS011;42618;51.226;4.910;2024-02-26T00:31:56;5.38;;;1.52;;
56736;SDS011;42618;51.226;4.910;2024-02-26T00:35:21;3.25;;;1.40;;
56736;SDS011;42618;51.226;4.910;2024-02-26T00:38:47;2.22;;;1.40;;
56736;SDS011;42618;51.226;4.910;2024-02-26T00:42:13;4.07;;;1.63;;
56736;SDS011;42618;51.226;4.910;2024-02-26T00:45:38;2.55;;;1.40;;
56736;SDS011;42618;51.226;4.910;2024-02-26T00:49:03;3.65;;;1.58;;
56736;SDS011;42618;51.226;4.910;2024-02-26T00:52:28;3.22;;;1.60;;
56736;SDS011;42618;51.226;4.910;2024-02-26T00:55:55;2.35;;;1.50;;
56736;SDS011;42618;51.226;4.910;2024-02-26T00:59:20;2.50;;;1.52;;
56736;SDS011;42618;51.226;4.910;2024-02-26T01:02:46;2.63;;;1.40;;
56736;SDS011;42618;51.226;4.910;2024-02-26T01:06:11;3.35;;;1.38;;
56736;SDS011;42618;51.226;4.910;2024-02-26T01:09:37;2.97;;;1.50;;
56736;SDS011;42618;51.226;4.910;2024-02-26T01:13:02;2.85;;;1.48;;
56736;SDS011;42618;51.226;4.910;2024-02-26T01:16:27;3.33;;;1.50;;
56736;SDS011;42618;51.226;4.910;2024-02-26T01:19:53;3.00;;;1.60;;
56736;SDS011;42618;51.226;4.910;2024-02-26T01:23:20;2.30;;;1.42;;
56736;SDS011;42618;51.226;4.910;2024-02-26T01:26:46;1.98;;;1.42;;
56736;SDS011;42618;51.226;4.910;2024-02-26T01:30:11;4.78;;;1.70;;
56736;SDS011;42618;51.226;4.910;2024-02-26T01:33:36;3.08;;;1.50;;
56736;SDS011;42618;51.226;4.910;2024-02-26T01:37:03;3.47;;;1.50;;
56736;SDS011;42618;51.226;4.910;2024-02-26T01:40:29;1.45;;;1.05;;
56736;SDS011;42618;51.226;4.910;2024-02-26T01:43:54;2.20;;;1.63;;
56736;SDS011;42618;51.226;4.910;2024-02-26T01:47:19;2.15;;;1.70;;
56736;SDS011;42618;51.226;4.910;2024-02-26T01:50:45;2.15;;;1.70;;
56736;SDS011;42618;51.226;4.910;2024-02-26T01:54:11;5.30;;;1.67;;
56736;SDS011;42618;51.226;4.910;2024-02-26T01:57:36;3.22;;;1.67;;
56736;SDS011;42618;51.226;4.910;2024-02-26T02:01:02;4.13;;;1.88;;
56736;SDS011;42618;51.226;4.910;2024-02-26T02:07:55;3.80;;;1.83;;
56736;SDS011;42618;51.226;4.910;2024-02-26T02:11:23;3.78;;;1.95;;
56736;SDS011;42618;51.226;4.910;2024-02-26T02:14:48;3.42;;;2.00;;
56736;SDS011;42618;51.226;4.910;2024-02-26T02:18:14;3.58;;;2.10;;
56736;SDS011;42618;51.226;4.910;2024-02-26T02:21:40;3.97;;;2.38;;
56736;SDS011;42618;51.226;4.910;2024-02-26T02:25:05;3.97;;;2.53;;
56736;SDS011;42618;51.226;4.910;2024-02-26T02:28:30;4.07;;;2.42;;
56736;SDS011;42618;51.226;4.910;2024-02-26T02:31:56;2.53;;;1.33;;
56736;SDS011;42618;51.226;4.910;2024-02-26T02:35:21;2.50;;;1.70;;
56736;SDS011;42618;51.226;4.910;2024-02-26T02:38:50;2.47;;;1.70;;
56736;SDS011;42618;51.226;4.910;2024-02-26T02:42:15;4.57;;;1.88;;
56736;SDS011;42618;51.226;4.910;2024-02-26T02:45:41;3.60;;;2.20;;
56736;SDS011;42618;51.226;4.910;2024-02-26T02:49:09;4.50;;;2.08;;
56736;SDS011;42618;51.226;4.910;2024-02-26T02:52:34;4.07;;;2.70;;
56736;SDS011;42618;51.226;4.910;2024-02-26T02:56:00;5.07;;;2.85;;
56736;SDS011;42618;51.226;4.910;2024-02-26T02:59:25;4.82;;;3.28;;
56736;SDS011;42618;51.226;4.910;2024-02-26T03:02:51;7.95;;;3.58;;
56736;SDS011;42618;51.226;4.910;2024-02-26T03:06:17;6.63;;;3.80;;
56736;SDS011;42618;51.226;4.910;2024-02-26T03:09:42;7.60;;;3.83;;
56736;SDS011;42618;51.226;4.910;2024-02-26T03:16:36;8.95;;;5.13;;
56736;SDS011;42618;51.226;4.910;2024-02-26T03:20:01;8.93;;;4.88;;
56736;SDS011;42618;51.226;4.910;2024-02-26T03:23:26;6.28;;;4.50;;
56736;SDS011;42618;51.226;4.910;2024-02-26T03:26:52;6.45;;;4.45;;
56736;SDS011;42618;51.226;4.910;2024-02-26T03:30:17;6.53;;;3.90;;
56736;SDS011;42618;51.226;4.910;2024-02-26T03:33:43;6.13;;;4.15;;
56736;SDS011;42618;51.226;4.910;2024-02-26T03:37:09;6.38;;;4.13;;
56736;SDS011;42618;51.226;4.910;2024-02-26T03:40:34;5.32;;;3.95;;
56736;SDS011;42618;51.226;4.910;2024-02-26T03:43:59;9.07;;;3.83;;
56736;SDS011;42618;51.226;4.910;2024-02-26T03:47:25;6.60;;;4.55;;
56736;SDS011;42618;51.226;4.910;2024-02-26T03:50:51;5.20;;;3.75;;
56736;SDS011;42618;51.226;4.910;2024-02-26T03:54:16;4.97;;;3.80;;
56736;SDS011;42618;51.226;4.910;2024-02-26T03:57:41;7.47;;;3.67;;
56736;SDS011;42618;51.226;4.910;2024-02-26T04:01:09;6.32;;;3.33;;
56736;SDS011;42618;51.226;4.910;2024-02-26T04:04:36;5.35;;;3.50;;
56736;SDS011;42618;51.226;4.910;2024-02-26T04:08:01;4.25;;;2.85;;
56736;SDS011;42618;51.226;4.910;2024-02-26T04:11:29;7.45;;;3.45;;
56736;SDS011;42618;51.226;4.910;2024-02-26T04:14:54;5.05;;;3.60;;
56736;SDS011;42618;51.226;4.910;2024-02-26T04:18:20;4.00;;;3.20;;
56736;SDS011;42618;51.226;4.910;2024-02-26T04:21:46;6.05;;;4.28;;
56736;SDS011;42618;51.226;4.910;2024-02-26T04:25:11;4.38;;;3.50;;
56736;SDS011;42618;51.226;4.910;2024-02-26T04:28:37;5.22;;;4.05;;
56736;SDS011;42618;51.226;4.910;2024-02-26T04:32:02;9.40;;;4.07;;
56736;SDS011;42618;51.226;4.910;2024-02-26T04:35:28;4.95;;;3.30;;
56736;SDS011;42618;51.226;4.910;2024-02-26T04:38:53;4.90;;;3.63;;
56736;SDS011;42618;51.226;4.910;2024-02-26T04:42:18;4.85;;;3.78;;
56736;SDS011;42618;51.226;4.910;2024-02-26T04:45:44;5.45;;;3.75;;
56736;SDS011;42618;51.226;4.910;2024-02-26T04:49:10;6.20;;;3.80;;
56736;SDS011;42618;51.226;4.910;2024-02-26T04:52:36;6.20;;;4.05;;
56736;SDS011;42618;51.226;4.910;2024-02-26T04:56:01;3.97;;;3.22;;
56736;SDS011;42618;51.226;4.910;2024-02-26T04:59:26;4.78;;;3.40;;
56736;SDS011;42618;51.226;4.910;2024-02-26T05:02:52;3.90;;;2.90;;
56736;SDS011;42618;51.226;4.910;2024-02-26T05:06:18;2.95;;;2.40;;
56736;SDS011;42618;51.226;4.910;2024-02-26T05:09:46;5.30;;;3.85;;
56736;SDS011;42618;51.226;4.910;2024-02-26T05:13:12;5.65;;;3.13;;
56736;SDS011;42618;51.226;4.910;2024-02-26T05:16:37;4.95;;;3.55;;
56736;SDS011;42618;51.226;4.910;2024-02-26T05:20:03;5.78;;;3.58;;
56736;SDS011;42618;51.226;4.910;2024-02-26T05:23:29;7.20;;;3.80;;
56736;SDS011;42618;51.226;4.910;2024-02-26T05:26:55;5.55;;;3.47;;
56736;SDS011;42618;51.226;4.910;2024-02-26T05:30:20;6.18;;;3.88;;
56736;SDS011;42618;51.226;4.910;2024-02-26T05:33:45;5.05;;;3.72;;
56736;SDS011;42618;51.226;4.910;2024-02-26T05:37:11;3.42;;;2.30;;
56736;SDS011;42618;51.226;4.910;2024-02-26T05:40:36;6.53;;;3.78;;
56736;SDS011;42618;51.226;4.910;2024-02-26T05:44:02;6.95;;;3.72;;
56736;SDS011;42618;51.226;4.910;2024-02-26T05:47:33;3.70;;;2.83;;
56736;SDS011;42618;51.226;4.910;2024-02-26T05:50:58;5.00;;;3.30;;
56736;SDS011;42618;51.226;4.910;2024-02-26T05:54:24;4.30;;;3.25;;
56736;SDS011;42618;51.226;4.910;2024-02-26T05:57:49;5.15;;;3.88;;
56736;SDS011;42618;51.226;4.910;2024-02-26T06:01:15;6.75;;;3.67;;
56736;SDS011;42618;51.226;4.910;2024-02-26T06:04:41;6.03;;;3.90;;
56736;SDS011;42618;51.226;4.910;2024-02-26T06:08:06;4.63;;;3.83;;
56736;SDS011;42618;51.226;4.910;2024-02-26T06:11:31;4.45;;;3.22;;
56736;SDS011;42618;51.226;4.910;2024-02-26T06:14:57;5.72;;;3.28;;
56736;SDS011;42618;51.226;4.910;2024-02-26T06:18:23;6.07;;;4.05;;
56736;SDS011;42618;51.226;4.910;2024-02-26T06:21:48;5.55;;;3.22;;
56736;SDS011;42618;51.226;4.910;2024-02-26T06:25:14;4.78;;;3.35;;
56736;SDS011;42618;51.226;4.910;2024-02-26T06:28:39;3.92;;;3.25;;
56736;SDS011;42618;51.226;4.910;2024-02-26T06:32:06;6.22;;;3.17;;
56736;SDS011;42618;51.226;4.910;2024-02-26T06:35:32;5.07;;;3.80;;
56736;SDS011;42618;51.226;4.910;2024-02-26T06:38:58;4.65;;;4.00;;
56736;SDS011;42618;51.226;4.910;2024-02-26T06:42:23;5.97;;;3.35;;
56736;SDS011;42618;51.226;4.910;2024-02-26T06:45:49;4.00;;;3.53;;
56736;SDS011;42618;51.226;4.910;2024-02-26T06:49:14;4.47;;;3.78;;
56736;SDS011;42618;51.226;4.910;2024-02-26T06:52:40;7.07;;;3.60;;
56736;SDS011;42618;51.226;4.910;2024-02-26T06:56:05;4.82;;;3.15;;
56736;SDS011;42618;51.226;4.910;2024-02-26T06:59:30;4.30;;;3.60;;
56736;SDS011;42618;51.226;4.910;2024-02-26T07:02:56;5.15;;;3.47;;
56736;SDS011;42618;51.226;4.910;2024-02-26T07:06:21;5.85;;;3.35;;
56736;SDS011;42618;51.226;4.910;2024-02-26T07:09:48;4.40;;;3.15;;
56736;SDS011;42618;51.226;4.910;2024-02-26T07:13:14;4.47;;;3.38;;
56736;SDS011;42618;51.226;4.910;2024-02-26T07:16:39;3.60;;;3.20;;
56736;SDS011;42618;51.226;4.910;2024-02-26T07:20:08;3.53;;;3.15;;
56736;SDS011;42618;51.226;4.910;2024-02-26T07:23:34;4.70;;;3.25;;
56736;SDS011;42618;51.226;4.910;2024-02-26T07:26:59;3.97;;;3.55;;
56736;SDS011;42618;51.226;4.910;2024-02-26T07:30:25;5.03;;;3.65;;
56736;SDS011;42618;51.226;4.910;2024-02-26T07:33:50;5.18;;;3.50;;
56736;SDS011;42618;51.226;4.910;2024-02-26T07:37:15;3.97;;;3.33;;
56736;SDS011;42618;51.226;4.910;2024-02-26T07:40:57;5.20;;;4.03;;
56736;SDS011;42618;51.226;4.910;2024-02-26T07:44:22;6.90;;;3.78;;
56736;SDS011;42618;51.226;4.910;2024-02-26T07:47:48;4.55;;;3.40;;
56736;SDS011;42618;51.226;4.910;2024-02-26T07:51:13;4.47;;;3.13;;
56736;SDS011;42618;51.226;4.910;2024-02-26T07:54:39;7.07;;;3.92;;
56736;SDS011;42618;51.226;4.910;2024-02-26T07:58:04;4.45;;;3.47;;
56736;SDS011;42618;51.226;4.910;2024-02-26T08:01:29;18.90;;;9.95;;
56736;SDS011;42618;51.226;4.910;2024-02-26T08:04:54;12.77;;;7.28;;
56736;SDS011;42618;51.226;4.910;2024-02-26T08:08:20;13.90;;;7.57;;
56736;SDS011;42618;51.226;4.910;2024-02-26T08:11:45;7.88;;;4.95;;
56736;SDS011;42618;51.226;4.910;2024-02-26T08:15:11;6.00;;;4.82;;
56736;SDS011;42618;51.226;4.910;2024-02-26T08:18:37;7.18;;;5.25;;
56736;SDS011;42618;51.226;4.910;2024-02-26T08:22:02;6.53;;;4.63;;
56736;SDS011;42618;51.226;4.910;2024-02-26T08:25:28;6.07;;;4.68;;
56736;SDS011;42618;51.226;4.910;2024-02-26T08:28:53;6.20;;;5.10;;
56736;SDS011;42618;51.226;4.910;2024-02-26T08:32:19;7.35;;;5.43;;
56736;SDS011;42618;51.226;4.910;2024-02-26T08:35:44;8.68;;;5.35;;
56736;SDS011;42618;51.226;4.910;2024-02-26T08:39:10;7.28;;;5.32;;
56736;SDS011;42618;51.226;4.910;2024-02-26T08:46:02;8.85;;;6.68;;
56736;SDS011;42618;51.226;4.910;2024-02-26T08:49:28;9.17;;;6.87;;
56736;SDS011;42618;51.226;4.910;2024-02-26T08:52:54;11.40;;;7.75;;
56736;SDS011;42618;51.226;4.910;2024-02-26T08:56:20;9.45;;;7.75;;
56736;SDS011;42618;51.226;4.910;2024-02-26T08:59:46;10.23;;;7.13;;
56736;SDS011;42618;51.226;4.910;2024-02-26T09:03:14;10.18;;;7.80;;
56736;SDS011;42618;51.226;4.910;2024-02-26T09:06:42;9.68;;;7.07;;
56736;SDS011;42618;51.226;4.910;2024-02-26T09:10:08;12.10;;;7.03;;
56736;SDS011;42618;51.226;4.910;2024-02-26T09:13:33;9.07;;;6.32;;
56736;SDS011;42618;51.226;4.910;2024-02-26T09:16:58;8.98;;;7.07;;
56736;SDS011;42618;51.226;4.910;2024-02-26T09:20:24;8.57;;;6.78;;
56736;SDS011;42618;51.226;4.910;2024-02-26T09:23:51;8.55;;;6.80;;
56736;SDS011;42618;51.226;4.910;2024-02-26T09:27:18;9.20;;;6.22;;
56736;SDS011;42618;51.226;4.910;2024-02-26T09:30:44;8.65;;;6.72;;
56736;SDS011;42618;51.226;4.910;2024-02-26T09:34:10;6.93;;;5.85;;
56736;SDS011;42618;51.226;4.910;2024-02-26T09:37:35;7.38;;;5.65;;
56736;SDS011;42618;51.226;4.910;2024-02-26T09:41:21;9.20;;;5.90;;
56736;SDS011;42618;51.226;4.910;2024-02-26T09:44:47;7.28;;;6.05;;
56736;SDS011;42618;51.226;4.910;2024-02-26T09:48:19;9.85;;;6.68;;
56736;SDS011;42618;51.226;4.910;2024-02-26T09:51:47;24.23;;;13.38;;
56736;SDS011;42618;51.226;4.910;2024-02-26T09:55:14;10.07;;;6.38;;
56736;SDS011;42618;51.226;4.910;2024-02-26T09:58:41;8.15;;;5.68;;
56736;SDS011;42618;51.226;4.910;2024-02-26T10:02:09;6.93;;;5.30;;
56736;SDS011;42618;51.226;4.910;2024-02-26T10:05:39;7.63;;;5.07;;
56736;SDS011;42618;51.226;4.910;2024-02-26T10:09:05;8.65;;;5.95;;
56736;SDS011;42618;51.226;4.910;2024-02-26T10:12:32;9.40;;;6.35;;
56736;SDS011;42618;51.226;4.910;2024-02-26T10:15:57;7.85;;;5.63;;
56736;SDS011;42618;51.226;4.910;2024-02-26T10:19:26;8.70;;;5.53;;
56736;SDS011;42618;51.226;4.910;2024-02-26T10:22:53;8.65;;;5.25;;
56736;SDS011;42618;51.226;4.910;2024-02-26T10:26:18;7.13;;;5.10;;
56736;SDS011;42618;51.226;4.910;2024-02-26T10:29:45;8.40;;;5.00;;
56736;SDS011;42618;51.226;4.910;2024-02-26T10:36:37;11.32;;;7.03;;
56736;SDS011;42618;51.226;4.910;2024-02-26T10:40:03;9.65;;;7.05;;
56736;SDS011;42618;51.226;4.910;2024-02-26T10:43:29;12.32;;;7.88;;
56736;SDS011;42618;51.226;4.910;2024-02-26T10:46:54;9.85;;;7.18;;
56736;SDS011;42618;51.226;4.910;2024-02-26T10:50:20;10.73;;;7.33;;
56736;SDS011;42618;51.226;4.910;2024-02-26T10:53:59;10.27;;;7.53;;
56736;SDS011;42618;51.226;4.910;2024-02-26T10:57:27;9.00;;;5.97;;
56736;SDS011;42618;51.226;4.910;2024-02-26T11:00:53;7.40;;;5.55;;
56736;SDS011;42618;51.226;4.910;2024-02-26T11:04:22;8.25;;;6.05;;
56736;SDS011;42618;51.226;4.910;2024-02-26T11:07:48;8.63;;;6.00;;
56736;SDS011;42618;51.226;4.910;2024-02-26T11:11:17;21.35;;;11.10;;
56736;SDS011;42618;51.226;4.910;2024-02-26T11:14:44;10.57;;;6.65;;
56736;SDS011;42618;51.226;4.910;2024-02-26T11:18:16;8.82;;;5.22;;
56736;SDS011;42618;51.226;4.910;2024-02-26T11:21:44;6.82;;;4.10;;
56736;SDS011;42618;51.226;4.910;2024-02-26T11:25:10;7.45;;;4.60;;
56736;SDS011;42618;51.226;4.910;2024-02-26T11:28:37;8.40;;;5.82;;
56736;SDS011;42618;51.226;4.910;2024-02-26T11:32:10;7.97;;;5.78;;
56736;SDS011;42618;51.226;4.910;2024-02-26T11:35:36;10.48;;;6.18;;
56736;SDS011;42618;51.226;4.910;2024-02-26T11:39:03;8.65;;;6.35;;
56736;SDS011;42618;51.226;4.910;2024-02-26T11:42:29;10.07;;;7.35;;
56736;SDS011;42618;51.226;4.910;2024-02-26T11:46:33;8.23;;;5.95;;
56736;SDS011;42618;51.226;4.910;2024-02-26T11:50:32;9.32;;;6.68;;
56736;SDS011;42618;51.226;4.910;2024-02-26T11:53:53;14.15;;;9.15;;
56736;SDS011;42618;51.226;4.910;2024-02-26T11:57:20;11.07;;;8.27;;
56736;SDS011;42618;51.226;4.910;2024-02-26T12:00:45;9.23;;;7.07;;
56736;SDS011;42618;51.226;4.910;2024-02-26T12:04:16;10.10;;;7.25;;
56736;SDS011;42618;51.226;4.910;2024-02-26T12:07:49;11.50;;;6.68;;
56736;SDS011;42618;51.226;4.910;2024-02-26T12:11:15;11.00;;;7.45;;
56736;SDS011;42618;51.226;4.910;2024-02-26T12:14:51;11.43;;;7.82;;
56736;SDS011;42618;51.226;4.910;2024-02-26T12:18:20;11.10;;;7.57;;
56736;SDS011;42618;51.226;4.910;2024-02-26T12:21:43;10.55;;;6.78;;
56736;SDS011;42618;51.226;4.910;2024-02-26T12:25:11;11.50;;;7.85;;
56736;SDS011;42618;51.226;4.910;2024-02-26T12:28:39;11.98;;;7.40;;
56736;SDS011;42618;51.226;4.910;2024-02-26T12:32:06;12.65;;;7.60;;
56736;SDS011;42618;51.226;4.910;2024-02-26T12:39:01;12.40;;;8.93;;
56736;SDS011;42618;51.226;4.910;2024-02-26T12:42:26;13.13;;;8.90;;
56736;SDS011;42618;51.226;4.910;2024-02-26T12:45:52;13.05;;;9.27;;
56736;SDS011;42618;51.226;4.910;2024-02-26T12:49:17;13.55;;;8.98;;
56736;SDS011;42618;51.226;4.910;2024-02-26T12:52:44;24.63;;;13.95;;
56736;SDS011;42618;51.226;4.910;2024-02-26T12:56:11;30.27;;;16.27;;
56736;SDS011;42618;51.226;4.910;2024-02-26T12:59:36;14.63;;;8.60;;
56736;SDS011;42618;51.226;4.910;2024-02-26T13:03:02;15.27;;;8.95;;
56736;SDS011;42618;51.226;4.910;2024-02-26T13:06:33;13.50;;;8.57;;
56736;SDS011;42618;51.226;4.910;2024-02-26T13:09:59;15.35;;;8.85;;
56736;SDS011;42618;51.226;4.910;2024-02-26T13:13:25;16.92;;;8.98;;
56736;SDS011;42618;51.226;4.910;2024-02-26T13:16:57;12.13;;;7.85;;
56736;SDS011;42618;51.226;4.910;2024-02-26T13:20:29;9.60;;;5.95;;
56736;SDS011;42618;51.226;4.910;2024-02-26T13:23:55;13.55;;;7.25;;
56736;SDS011;42618;51.226;4.910;2024-02-26T13:27:23;14.10;;;7.97;;
56736;SDS011;42618;51.226;4.910;2024-02-26T13:30:51;15.93;;;8.30;;
56736;SDS011;42618;51.226;4.910;2024-02-26T13:34:23;14.15;;;7.85;;
56736;SDS011;42618;51.226;4.910;2024-02-26T13:37:48;13.80;;;7.47;;
56736;SDS011;42618;51.226;4.910;2024-02-26T13:41:21;13.48;;;7.25;;
56736;SDS011;42618;51.226;4.910;2024-02-26T13:44:46;15.10;;;8.00;;
56736;SDS011;42618;51.226;4.910;2024-02-26T13:48:13;13.27;;;7.43;;
56736;SDS011;42618;51.226;4.910;2024-02-26T13:51:38;16.08;;;7.40;;
56736;SDS011;42618;51.226;4.910;2024-02-26T13:55:04;15.15;;;7.50;;
56736;SDS011;42618;51.226;4.910;2024-02-26T13:58:31;11.18;;;5.80;;
56736;SDS011;42618;51.226;4.910;2024-02-26T14:02:00;15.95;;;8.00;;
56736;SDS011;42618;51.226;4.910;2024-02-26T14:05:26;16.60;;;8.30;;
56736;SDS011;42618;51.226;4.910;2024-02-26T14:08:52;13.10;;;6.82;;
56736;SDS011;42618;51.226;4.910;2024-02-26T14:12:18;13.30;;;6.90;;
56736;SDS011;42618;51.226;4.910;2024-02-26T14:15:43;11.02;;;6.97;;
56736;SDS011;42618;51.226;4.910;2024-02-26T14:19:09;10.32;;;6.20;;
56736;SDS011;42618;51.226;4.910;2024-02-26T14:22:35;12.25;;;6.82;;
56736;SDS011;42618;51.226;4.910;2024-02-26T14:26:01;13.80;;;6.68;;
56736;SDS011;42618;51.226;4.910;2024-02-26T14:29:26;12.55;;;6.20;;
56736;SDS011;42618;51.226;4.910;2024-02-26T14:32:53;10.18;;;6.22;;
56736;SDS011;42618;51.226;4.910;2024-02-26T14:36:21;10.35;;;5.03;;
56736;SDS011;42618;51.226;4.910;2024-02-26T14:39:46;9.50;;;5.03;;
56736;SDS011;42618;51.226;4.910;2024-02-26T14:43:12;10.15;;;5.72;;
56736;SDS011;42618;51.226;4.910;2024-02-26T14:46:38;10.25;;;5.25;;
56736;SDS011;42618;51.226;4.910;2024-02-26T14:50:04;8.70;;;5.13;;
56736;SDS011;42618;51.226;4.910;2024-02-26T14:53:29;9.77;;;5.33;;
56736;SDS011;42618;51.226;4.910;2024-02-26T14:56:56;9.60;;;5.50;;
56736;SDS011;42618;51.226;4.910;2024-02-26T15:00:21;10.73;;;6.07;;
56736;SDS011;42618;51.226;4.910;2024-02-26T15:03:46;8.65;;;5.20;;
56736;SDS011;42618;51.226;4.910;2024-02-26T15:07:13;8.13;;;4.78;;
56736;SDS011;42618;51.226;4.910;2024-02-26T15:10:41;9.20;;;4.68;;
56736;SDS011;42618;51.226;4.910;2024-02-26T15:14:07;9.15;;;4.63;;
56736;SDS011;42618;51.226;4.910;2024-02-26T15:17:32;7.55;;;4.40;;
56736;SDS011;42618;51.226;4.910;2024-02-26T15:20:58;5.30;;;3.60;;
56736;SDS011;42618;51.226;4.910;2024-02-26T15:24:23;5.38;;;3.28;;
56736;SDS011;42618;51.226;4.910;2024-02-26T15:27:49;6.75;;;3.65;;
56736;SDS011;42618;51.226;4.910;2024-02-26T15:31:17;7.55;;;4.40;;
56736;SDS011;42618;51.226;4.910;2024-02-26T15:34:42;7.78;;;4.38;;
56736;SDS011;42618;51.226;4.910;2024-02-26T15:38:11;8.38;;;4.97;;
56736;SDS011;42618;51.226;4.910;2024-02-26T15:41:36;9.13;;;5.38;;
56736;SDS011;42618;51.226;4.910;2024-02-26T15:45:02;9.40;;;4.82;;
56736;SDS011;42618;51.226;4.910;2024-02-26T15:48:27;9.00;;;4.90;;
56736;SDS011;42618;51.226;4.910;2024-02-26T15:51:53;8.30;;;5.22;;
56736;SDS011;42618;51.226;4.910;2024-02-26T15:55:19;9.10;;;4.63;;
56736;SDS011;42618;51.226;4.910;2024-02-26T15:58:44;12.05;;;6.30;;
56736;SDS011;42618;51.226;4.910;2024-02-26T16:02:09;9.80;;;5.60;;
56736;SDS011;42618;51.226;4.910;2024-02-26T16:05:36;10.25;;;5.65;;
56736;SDS011;42618;51.226;4.910;2024-02-26T16:09:08;11.10;;;6.00;;
56736;SDS011;42618;51.226;4.910;2024-02-26T16:12:38;13.07;;;6.47;;
56736;SDS011;42618;51.226;4.910;2024-02-26T16:16:06;12.00;;;6.05;;
56736;SDS011;42618;51.226;4.910;2024-02-26T16:19:40;11.18;;;6.28;;
56736;SDS011;42618;51.226;4.910;2024-02-26T16:23:05;14.82;;;7.65;;
56736;SDS011;42618;51.226;4.910;2024-02-26T16:26:31;13.77;;;7.22;;
56736;SDS011;42618;51.226;4.910;2024-02-26T16:29:57;14.55;;;6.97;;
56736;SDS011;42618;51.226;4.910;2024-02-26T16:33:22;12.20;;;7.55;;
56736;SDS011;42618;51.226;4.910;2024-02-26T16:36:47;13.32;;;7.35;;
56736;SDS011;42618;51.226;4.910;2024-02-26T16:40:13;13.32;;;7.40;;
56736;SDS011;42618;51.226;4.910;2024-02-26T16:43:39;11.88;;;7.13;;
56736;SDS011;42618;51.226;4.910;2024-02-26T16:47:05;14.93;;;7.22;;
56736;SDS011;42618;51.226;4.910;2024-02-26T16:50:31;20.95;;;9.30;;
56736;SDS011;42618;51.226;4.910;2024-02-26T16:53:57;18.45;;;8.57;;
56736;SDS011;42618;51.226;4.910;2024-02-26T16:57:22;12.98;;;7.10;;
56736;SDS011;42618;51.226;4.910;2024-02-26T17:00:50;15.95;;;7.82;;
56736;SDS011;42618;51.226;4.910;2024-02-26T17:04:16;14.57;;;7.87;;
56736;SDS011;42618;51.226;4.910;2024-02-26T17:07:42;24.77;;;11.02;;
56736;SDS011;42618;51.226;4.910;2024-02-26T17:11:08;14.15;;;7.50;;
56736;SDS011;42618;51.226;4.910;2024-02-26T17:14:36;47.40;;;21.63;;
56736;SDS011;42618;51.226;4.910;2024-02-26T17:18:02;17.88;;;8.98;;
56736;SDS011;42618;51.226;4.910;2024-02-26T17:21:28;12.20;;;6.28;;
56736;SDS011;42618;51.226;4.910;2024-02-26T17:24:53;14.18;;;7.43;;
56736;SDS011;42618;51.226;4.910;2024-02-26T17:28:19;15.35;;;8.52;;
56736;SDS011;42618;51.226;4.910;2024-02-26T17:31:44;13.45;;;7.25;;
56736;SDS011;42618;51.226;4.910;2024-02-26T17:35:09;12.85;;;6.97;;
56736;SDS011;42618;51.226;4.910;2024-02-26T17:38:35;15.43;;;7.80;;
56736;SDS011;42618;51.226;4.910;2024-02-26T17:42:00;12.20;;;6.90;;
56736;SDS011;42618;51.226;4.910;2024-02-26T17:45:25;12.68;;;6.57;;
56736;SDS011;42618;51.226;4.910;2024-02-26T17:48:51;12.85;;;6.88;;
56736;SDS011;42618;51.226;4.910;2024-02-26T17:52:16;11.90;;;6.97;;
56736;SDS011;42618;51.226;4.910;2024-02-26T17:55:40;12.75;;;6.75;;
56736;SDS011;42618;51.226;4.910;2024-02-26T17:59:07;16.20;;;7.43;;
56736;SDS011;42618;51.226;4.910;2024-02-26T18:02:32;11.63;;;6.40;;
56736;SDS011;42618;51.226;4.910;2024-02-26T18:05:58;12.15;;;6.30;;
56736;SDS011;42618;51.226;4.910;2024-02-26T18:09:23;11.85;;;6.70;;
56736;SDS011;42618;51.226;4.910;2024-02-26T18:12:49;11.20;;;6.30;;
56736;SDS011;42618;51.226;4.910;2024-02-26T18:16:15;10.68;;;6.18;;
56736;SDS011;42618;51.226;4.910;2024-02-26T18:19:41;11.05;;;6.32;;
56736;SDS011;42618;51.226;4.910;2024-02-26T18:23:06;12.05;;;5.90;;
56736;SDS011;42618;51.226;4.910;2024-02-26T18:26:32;11.07;;;6.30;;
56736;SDS011;42618;51.226;4.910;2024-02-26T18:29:57;12.43;;;6.90;;
56736;SDS011;42618;51.226;4.910;2024-02-26T18:33:24;11.95;;;7.55;;
56736;SDS011;42618;51.226;4.910;2024-02-26T18:36:51;19.60;;;9.85;;
56736;SDS011;42618;51.226;4.910;2024-02-26T18:40:16;12.25;;;7.00;;
56736;SDS011;42618;51.226;4.910;2024-02-26T18:43:46;10.98;;;6.18;;
56736;SDS011;42618;51.226;4.910;2024-02-26T18:47:12;12.98;;;7.45;;
56736;SDS011;42618;51.226;4.910;2024-02-26T18:50:38;14.63;;;7.05;;
56736;SDS011;42618;51.226;4.910;2024-02-26T18:54:04;44.17;;;21.02;;
56736;SDS011;42618;51.226;4.910;2024-02-26T18:57:31;46.10;;;24.25;;
56736;SDS011;42618;51.226;4.910;2024-02-26T19:00:56;11.23;;;6.53;;
56736;SDS011;42618;51.226;4.910;2024-02-26T19:04:21;11.73;;;6.30;;
56736;SDS011;42618;51.226;4.910;2024-02-26T19:07:52;14.30;;;7.32;;
56736;SDS011;42618;51.226;4.910;2024-02-26T19:11:17;15.03;;;7.77;;
56736;SDS011;42618;51.226;4.910;2024-02-26T19:14:43;14.10;;;7.28;;
56736;SDS011;42618;51.226;4.910;2024-02-26T19:18:10;15.95;;;7.50;;
56736;SDS011;42618;51.226;4.910;2024-02-26T19:21:35;15.05;;;7.82;;
56736;SDS011;42618;51.226;4.910;2024-02-26T19:25:09;11.82;;;7.07;;
56736;SDS011;42618;51.226;4.910;2024-02-26T19:28:34;12.97;;;7.20;;
56736;SDS011;42618;51.226;4.910;2024-02-26T19:32:01;14.77;;;7.20;;
56736;SDS011;42618;51.226;4.910;2024-02-26T19:35:26;15.27;;;8.45;;
56736;SDS011;42618;51.226;4.910;2024-02-26T19:38:52;13.90;;;8.05;;
56736;SDS011;42618;51.226;4.910;2024-02-26T19:42:18;14.77;;;7.88;;
56736;SDS011;42618;51.226;4.910;2024-02-26T19:45:43;17.10;;;8.02;;
56736;SDS011;42618;51.226;4.910;2024-02-26T19:49:08;48.97;;;22.27;;
56736;SDS011;42618;51.226;4.910;2024-02-26T19:52:34;37.33;;;20.40;;
56736;SDS011;42618;51.226;4.910;2024-02-26T19:55:59;19.10;;;9.13;;
56736;SDS011;42618;51.226;4.910;2024-02-26T19:59:25;18.50;;;9.40;;
56736;SDS011;42618;51.226;4.910;2024-02-26T20:02:50;17.20;;;10.07;;
56736;SDS011;42618;51.226;4.910;2024-02-26T20:06:16;18.30;;;10.48;;
56736;SDS011;42618;51.226;4.910;2024-02-26T20:09:42;22.98;;;10.60;;
56736;SDS011;42618;51.226;4.910;2024-02-26T20:13:08;17.70;;;10.65;;
56736;SDS011;42618;51.226;4.910;2024-02-26T20:16:37;21.48;;;10.80;;
56736;SDS011;42618;51.226;4.910;2024-02-26T20:20:03;20.80;;;10.57;;
56736;SDS011;42618;51.226;4.910;2024-02-26T20:23:29;18.95;;;10.35;;
56736;SDS011;42618;51.226;4.910;2024-02-26T20:26:54;20.95;;;10.70;;
56736;SDS011;42618;51.226;4.910;2024-02-26T20:30:19;15.05;;;8.40;;
56736;SDS011;42618;51.226;4.910;2024-02-26T20:33:44;18.33;;;8.20;;
56736;SDS011;42618;51.226;4.910;2024-02-26T20:37:10;16.13;;;8.60;;
56736;SDS011;42618;51.226;4.910;2024-02-26T20:40:36;20.27;;;8.90;;
56736;SDS011;42618;51.226;4.910;2024-02-26T20:44:02;16.85;;;8.82;;
56736;SDS011;42618;51.226;4.910;2024-02-26T20:47:27;15.32;;;7.78;;
56736;SDS011;42618;51.226;4.910;2024-02-26T20:50:53;15.40;;;8.00;;